createdAt,value
2023-03-15T00:01:21.028Z,98573.13
2023-03-15T00:03:48.394Z,98572.28
2023-03-15T00:06:16.595Z,98580.53
2023-03-15T00:08:47.731Z,98599.78
2023-03-15T00:11:17.009Z,98602.66
2023-03-15T00:13:45.241Z,98600.84
2023-03-15T00:16:17.745Z,98610.66
2023-03-15T00:18:48.120Z,98606.78
2023-03-15T00:21:15.740Z,98614.31
2023-03-15T00:23:43.071Z,98627.72
2023-03-15T00:26:10.761Z,98624.97
2023-03-15T00:28:38.661Z,98634.31
2023-03-15T00:31:16.039Z,98633.34
2023-03-15T00:33:45.806Z,98624.59
2023-03-15T00:36:13.813Z,98632.19
2023-03-15T00:38:44.296Z,98640.41
2023-03-15T00:41:14.618Z,98639.88
2023-03-15T00:43:43.121Z,98645.31
2023-03-15T00:46:11.793Z,98633.34
2023-03-15T00:48:39.327Z,98646.69
2023-03-15T00:51:19.224Z,98641.38
2023-03-15T00:53:47.502Z,98647.28
2023-03-15T00:56:18.475Z,98657.25
2023-03-15T00:58:45.786Z,98663.41
2023-03-15T01:01:16.225Z,98661.41
2023-03-15T01:03:44.116Z,98669.16
2023-03-15T01:06:14.661Z,98682.59
2023-03-15T01:08:42.803Z,98679.44
2023-03-15T01:11:15.215Z,98681.88
2023-03-15T01:13:43.286Z,98684.66
2023-03-15T01:16:13.395Z,98662.84
2023-03-15T01:18:41.412Z,98689.56
2023-03-15T01:21:10.765Z,98687.13
2023-03-15T01:23:38.814Z,98685.16
2023-03-15T01:26:10.323Z,98687.56
2023-03-15T01:28:37.571Z,98697.00
2023-03-15T01:31:05.850Z,98691.97
2023-03-15T01:33:34.250Z,98683.06
2023-03-15T01:36:04.916Z,98700.22
2023-03-15T01:38:34.145Z,98704.84
2023-03-15T01:41:01.875Z,98688.16
2023-03-15T01:43:34.993Z,98702.66
2023-03-15T01:46:02.635Z,98720.91
2023-03-15T01:48:38.572Z,98714.81
2023-03-15T01:51:14.256Z,98719.50
2023-03-15T01:53:46.610Z,98728.41
2023-03-15T01:56:15.691Z,98725.38
2023-03-15T01:58:46.476Z,98742.41
2023-03-15T02:01:16.583Z,98741.13
2023-03-15T02:03:51.384Z,98748.88
2023-03-15T02:06:21.199Z,98756.31
2023-03-15T02:09:02.688Z,98762.47
2023-03-15T02:11:35.700Z,98759.78
2023-03-15T02:14:05.672Z,98758.44
2023-03-15T02:16:35.724Z,98786.16
2023-03-15T02:19:19.993Z,98774.13
2023-03-15T02:22:33.256Z,98783.63
2023-03-15T02:25:26.957Z,98791.59
2023-03-15T02:27:56.155Z,98804.66
2023-03-15T02:30:23.548Z,98799.59
2023-03-15T02:32:51.293Z,98813.59
2023-03-15T02:35:26.975Z,98819.47
2023-03-15T02:37:54.825Z,98811.63
2023-03-15T02:40:24.824Z,98828.69
2023-03-15T02:42:56.339Z,98835.16
2023-03-15T02:45:26.340Z,98828.84
2023-03-15T02:47:54.239Z,98839.91
2023-03-15T02:50:21.742Z,98847.19
2023-03-15T02:52:49.997Z,98861.44
2023-03-15T02:55:19.402Z,98848.72
2023-03-15T02:57:48.581Z,98861.56
2023-03-15T03:00:16.578Z,98859.13
2023-03-15T03:02:47.368Z,98872.00
2023-03-15T03:05:16.866Z,98877.56
2023-03-15T03:07:44.913Z,98888.97
2023-03-15T03:10:15.864Z,98887.47
2023-03-15T03:12:53.716Z,98906.16
2023-03-15T03:15:27.584Z,98912.34
2023-03-15T03:17:55.252Z,98899.53
2023-03-15T03:20:24.487Z,98908.31
2023-03-15T03:22:52.021Z,98937.59
2023-03-15T03:25:19.425Z,98936.31
2023-03-15T03:27:48.540Z,98923.31
2023-03-15T03:30:16.554Z,98948.22
2023-03-15T03:32:49.859Z,98947.63
2023-03-15T03:35:17.271Z,98951.34
2023-03-15T03:37:44.944Z,98948.88
2023-03-15T03:40:22.352Z,98961.03
2023-03-15T03:42:49.961Z,98966.78
2023-03-15T03:45:19.654Z,98978.00
2023-03-15T03:47:51.859Z,98975.09
2023-03-15T03:50:19.233Z,98979.50
2023-03-15T03:52:46.924Z,98991.66
2023-03-15T03:55:25.286Z,99004.69
2023-03-15T03:57:54.104Z,99011.31
2023-03-15T04:00:38.055Z,99022.28
2023-03-15T04:03:06.839Z,99018.81
2023-03-15T04:05:36.764Z,99031.78
2023-03-15T04:08:04.915Z,99032.97
2023-03-15T04:10:37.242Z,99045.28
2023-03-15T04:13:04.754Z,99059.53
2023-03-15T04:15:31.993Z,99054.75
2023-03-15T04:18:00.364Z,99056.72
2023-03-15T04:20:34.633Z,99065.41
2023-03-15T04:23:03.194Z,99062.56
2023-03-15T04:25:58.116Z,99076.13
2023-03-15T04:28:44.112Z,99084.00
2023-03-15T04:31:37.695Z,99087.31
2023-03-15T04:34:28.458Z,99096.34
2023-03-15T04:37:06.114Z,99107.22
2023-03-15T04:39:59.861Z,99113.09
2023-03-15T04:42:46.597Z,99113.09
2023-03-15T04:45:32.166Z,99103.28
2023-03-15T04:48:18.013Z,99109.09
2023-03-15T04:51:04.211Z,99113.50
2023-03-15T04:53:50.531Z,99112.28
2023-03-15T04:56:37.467Z,99117.47
2023-03-15T04:59:39.871Z,99117.47
2023-03-15T05:02:30.820Z,99114.13
2023-03-15T05:05:12.528Z,99122.66
2023-03-15T05:07:54.241Z,99125.53
2023-03-15T05:10:31.578Z,99125.31
2023-03-15T05:13:09.797Z,99133.28
2023-03-15T05:15:55.741Z,99141.72
2023-03-15T05:18:38.729Z,99144.16
2023-03-15T05:21:32.843Z,99154.00
2023-03-15T05:24:18.793Z,99159.22
2023-03-15T05:27:06.273Z,99146.19
2023-03-15T05:29:54.105Z,99162.06
2023-03-15T05:32:39.609Z,99174.53
2023-03-15T05:35:32.346Z,99182.66
2023-03-15T05:38:18.064Z,99177.22
2023-03-15T05:41:03.232Z,99189.94
2023-03-15T05:43:46.590Z,99182.44
2023-03-15T05:46:32.537Z,99182.94
2023-03-15T05:48:59.928Z,99190.06
2023-03-15T05:51:38.709Z,99189.72
2023-03-15T05:54:44.314Z,99221.81
2023-03-15T05:57:28.074Z,99228.63
2023-03-15T06:00:15.250Z,99237.97
2023-03-15T06:02:44.102Z,99231.19
2023-03-15T06:05:37.412Z,99251.38
2023-03-15T06:08:08.521Z,99244.38
2023-03-15T06:10:39.651Z,99254.44
2023-03-15T06:13:09.596Z,99259.91
2023-03-15T06:15:37.106Z,99243.97
2023-03-15T06:18:05.779Z,99257.75
2023-03-15T06:20:33.381Z,99251.00
2023-03-15T06:23:07.697Z,99265.63
2023-03-15T06:25:45.389Z,99276.28
2023-03-15T06:28:13.529Z,99289.09
2023-03-15T06:30:45.951Z,99292.63
2023-03-15T06:33:13.482Z,99296.38
2023-03-15T06:35:41.119Z,99298.75
2023-03-15T06:38:10.451Z,99296.28
2023-03-15T06:40:39.392Z,99309.44
2023-03-15T06:43:07.245Z,99308.97
2023-03-15T06:45:35.594Z,99323.53
2023-03-15T06:48:04.903Z,99320.22
2023-03-15T06:50:46.096Z,99311.28
2023-03-15T06:53:15.251Z,99318.19
2023-03-15T06:55:42.990Z,99321.56
2023-03-15T06:58:10.969Z,99335.44
2023-03-15T07:00:38.385Z,99343.44
2023-03-15T07:03:05.987Z,99348.13
2023-03-15T07:05:33.471Z,99346.78
2023-03-15T07:08:01.140Z,99334.25
2023-03-15T07:10:28.423Z,99373.59
2023-03-15T07:12:55.973Z,99364.31
2023-03-15T07:15:23.423Z,99370.72
2023-03-15T07:17:50.949Z,99379.06
2023-03-15T07:20:18.263Z,99372.91
2023-03-15T07:22:45.845Z,99363.41
2023-03-15T07:25:13.245Z,99364.00
2023-03-15T07:27:41.244Z,99386.53
2023-03-15T07:30:09.898Z,99379.03
2023-03-15T07:32:39.145Z,99384.75
2023-03-15T07:35:06.830Z,99393.47
2023-03-15T07:37:34.418Z,99391.06
2023-03-15T07:40:09.820Z,99391.16
2023-03-15T07:42:37.610Z,99390.69
2023-03-15T07:45:06.414Z,99374.28
2023-03-15T07:47:34.196Z,99390.25
2023-03-15T07:50:01.555Z,99398.00
2023-03-15T07:52:29.118Z,99389.72
2023-03-15T07:54:56.339Z,99408.09
2023-03-15T07:57:23.903Z,99410.72
2023-03-15T07:59:53.453Z,99414.84
2023-03-15T08:02:21.086Z,99424.06
2023-03-15T08:04:50.826Z,99421.31
2023-03-15T08:07:18.323Z,99420.06
2023-03-15T08:09:46.414Z,99439.13
2023-03-15T08:12:14.229Z,99428.94
2023-03-15T08:14:41.474Z,99421.44
2023-03-15T08:17:13.169Z,99436.16
2023-03-15T08:19:40.384Z,99450.94
2023-03-15T08:22:08.329Z,99455.56
2023-03-15T08:24:35.992Z,99455.19
2023-03-15T08:27:05.118Z,99460.03
2023-03-15T08:29:32.516Z,99460.00
2023-03-15T08:32:00.277Z,99468.03
2023-03-15T08:34:27.564Z,99452.97
2023-03-15T08:36:55.196Z,99469.66
2023-03-15T08:39:24.109Z,99466.44
2023-03-15T08:41:51.688Z,99472.47
2023-03-15T08:44:18.953Z,99464.53
2023-03-15T08:46:46.751Z,99490.16
2023-03-15T08:49:14.071Z,99493.75
2023-03-15T08:51:41.650Z,99506.50
2023-03-15T08:54:08.997Z,99509.19
2023-03-15T08:56:36.572Z,99516.81
2023-03-15T08:59:03.784Z,99514.53
2023-03-15T09:01:31.373Z,99515.16
2023-03-15T09:03:58.871Z,99525.78
2023-03-15T09:06:26.425Z,99535.50
2023-03-15T09:08:54.013Z,99543.19
2023-03-15T09:11:22.886Z,99551.78
2023-03-15T09:13:50.229Z,99539.97
2023-03-15T09:16:18.156Z,99559.34
2023-03-15T09:18:45.710Z,99561.41
2023-03-15T09:21:13.260Z,99577.38
2023-03-15T09:23:40.617Z,99570.03
2023-03-15T09:26:08.169Z,99572.16
2023-03-15T09:28:35.432Z,99580.81
2023-03-15T09:31:06.826Z,99583.50
2023-03-15T09:33:34.138Z,99588.09
2023-03-15T09:36:01.756Z,99570.94
2023-03-15T09:38:29.170Z,99597.75
2023-03-15T09:40:59.033Z,99581.28
2023-03-15T09:43:35.347Z,99588.94
2023-03-15T09:46:26.611Z,99591.41
2023-03-15T09:49:19.294Z,99593.94
2023-03-15T09:51:59.851Z,99604.66
2023-03-15T09:54:44.544Z,99600.50
2023-03-15T09:57:19.713Z,99612.38
2023-03-15T09:59:52.388Z,99604.66
2023-03-15T10:02:24.775Z,99615.22
2023-03-15T10:04:58.884Z,99608.59
2023-03-15T10:07:26.516Z,99631.16
2023-03-15T10:09:54.585Z,99621.56
2023-03-15T10:12:29.611Z,99627.28
2023-03-15T10:15:21.721Z,99623.78
2023-03-15T10:17:58.291Z,99628.47
2023-03-15T10:20:29.625Z,99637.16
2023-03-15T10:23:09.196Z,99643.50
2023-03-15T10:25:37.681Z,99648.31
2023-03-15T10:28:08.290Z,99646.47
2023-03-15T10:30:37.864Z,99645.09
2023-03-15T10:33:26.503Z,99639.03
2023-03-15T10:36:04.375Z,99644.22
2023-03-15T10:38:38.731Z,99656.31
2023-03-15T10:41:07.850Z,99648.81
2023-03-15T10:43:40.117Z,99675.28
2023-03-15T10:46:10.266Z,99676.38
2023-03-15T10:48:41.294Z,99677.97
2023-03-15T10:51:30.267Z,99683.94
2023-03-15T10:54:04.719Z,99670.00
2023-03-15T10:56:37.494Z,99672.31
2023-03-15T10:59:17.224Z,99682.53
2023-03-15T11:01:48.270Z,99681.22
2023-03-15T11:04:17.587Z,99681.69
2023-03-15T11:06:49.602Z,99679.56
2023-03-15T11:09:22.848Z,99685.94
2023-03-15T11:11:55.902Z,99695.44
2023-03-15T11:14:23.593Z,99694.00
2023-03-15T11:16:55.528Z,99702.81
2023-03-15T11:19:28.126Z,99696.47
2023-03-15T11:21:56.851Z,99688.94
2023-03-15T11:24:30.725Z,99698.25
2023-03-15T11:27:01.798Z,99695.47
2023-03-15T11:29:35.593Z,99693.34
2023-03-15T11:32:16.681Z,99698.50
2023-03-15T11:34:53.361Z,99693.59
2023-03-15T11:37:28.756Z,99702.06
2023-03-15T11:40:15.558Z,99697.66
2023-03-15T11:42:49.680Z,99702.47
2023-03-15T11:45:34.392Z,99702.59
2023-03-15T11:48:43.014Z,99704.72
2023-03-15T11:51:13.214Z,99704.84
2023-03-15T11:54:04.358Z,99710.94
2023-03-15T11:56:44.171Z,99726.84
2023-03-15T11:59:15.615Z,99722.00
2023-03-15T12:01:46.231Z,99727.25
2023-03-15T12:04:25.341Z,99728.38
2023-03-15T12:06:54.806Z,99728.34
2023-03-15T12:09:33.809Z,99737.66
2023-03-15T12:12:07.167Z,99735.13
2023-03-15T12:14:36.498Z,99748.66
2023-03-15T12:17:28.936Z,99747.13
2023-03-15T12:20:01.923Z,99743.72
2023-03-15T12:22:33.953Z,99733.72
2023-03-15T12:25:54.738Z,99748.22
2023-03-15T12:28:30.462Z,99741.78
2023-03-15T12:31:02.062Z,99747.63
2023-03-15T12:33:32.311Z,99752.75
2023-03-15T12:36:03.230Z,99750.22
2023-03-15T12:38:43.154Z,99762.50
2023-03-15T12:41:34.829Z,99759.81
2023-03-15T12:44:18.852Z,99755.72
2023-03-15T12:46:46.137Z,99763.34
2023-03-15T12:49:27.473Z,99755.31
2023-03-15T12:51:59.783Z,99766.81
2023-03-15T12:54:45.542Z,99771.66
2023-03-15T12:57:18.960Z,99780.16
2023-03-15T12:59:59.245Z,99780.94
2023-03-15T13:02:41.625Z,99792.09
2023-03-15T13:05:10.713Z,99788.56
2023-03-15T13:07:58.241Z,99785.47
2023-03-15T13:10:31.168Z,99796.59
2023-03-15T13:13:21.838Z,99797.03
2023-03-15T13:16:18.643Z,99804.06
2023-03-15T13:19:05.509Z,99795.66
2023-03-15T13:21:36.692Z,99790.66
2023-03-15T13:24:14.659Z,99805.72
2023-03-15T13:26:55.824Z,99814.75
2023-03-15T13:29:29.586Z,99810.22
2023-03-15T13:32:19.148Z,99815.31
2023-03-15T13:34:47.649Z,99811.97
2023-03-15T13:37:18.146Z,99817.16
2023-03-15T13:40:08.828Z,99818.88
2023-03-15T13:42:40.934Z,99811.44
2023-03-15T13:45:16.058Z,99833.09
2023-03-15T13:47:45.961Z,99827.97
2023-03-15T13:50:21.539Z,99828.81
2023-03-15T13:52:49.880Z,99832.47
2023-03-15T13:55:22.607Z,99837.03
2023-03-15T13:57:56.993Z,99826.06
2023-03-15T14:00:25.180Z,99810.53
2023-03-15T14:03:00.829Z,99833.97
2023-03-15T14:05:32.495Z,99836.50
2023-03-15T14:08:05.909Z,99845.38
2023-03-15T14:10:38.343Z,99840.75
2023-03-15T14:13:32.385Z,99839.91
2023-03-15T14:15:59.603Z,99847.75
2023-03-15T14:18:32.551Z,99849.28
2023-03-15T14:21:15.604Z,99856.69
2023-03-15T14:23:48.404Z,99852.78
2023-03-15T14:26:21.838Z,99852.63
2023-03-15T14:28:59.243Z,99868.97
2023-03-15T14:31:32.453Z,99865.22
2023-03-15T14:34:18.883Z,99884.34
2023-03-15T14:36:47.692Z,99872.75
2023-03-15T14:39:24.833Z,99886.66
2023-03-15T14:41:52.382Z,99890.91
2023-03-15T14:44:20.456Z,99888.13
2023-03-15T14:46:49.129Z,99873.84
2023-03-15T14:49:24.808Z,99874.84
2023-03-15T14:51:59.007Z,99887.50
2023-03-15T14:54:28.665Z,99873.50
2023-03-15T14:56:56.282Z,99889.66
2023-03-15T14:59:24.050Z,99884.72
2023-03-15T15:01:54.867Z,99885.97
2023-03-15T15:04:23.249Z,99906.41
2023-03-15T15:06:51.270Z,99900.97
2023-03-15T15:09:23.497Z,99905.56
2023-03-15T15:11:51.374Z,99906.63
2023-03-15T15:14:19.923Z,99896.91
2023-03-15T15:16:47.306Z,99910.53
2023-03-15T15:19:15.587Z,99911.97
2023-03-15T15:21:43.804Z,99914.69
2023-03-15T15:24:19.825Z,99915.03
2023-03-15T15:26:47.373Z,99916.91
2023-03-15T15:29:16.641Z,99926.44
2023-03-15T15:31:45.085Z,99925.91
2023-03-15T15:34:12.965Z,99927.16
2023-03-15T15:36:43.075Z,99933.72
2023-03-15T15:39:22.146Z,99927.28
2023-03-15T15:41:50.211Z,99938.44
2023-03-15T15:44:22.439Z,99934.31
2023-03-15T15:46:49.561Z,99940.97
2023-03-15T15:49:18.180Z,99949.72
2023-03-15T15:51:47.284Z,99940.84
2023-03-15T15:54:18.481Z,99957.03
2023-03-15T15:56:50.922Z,99947.91
2023-03-15T15:59:18.870Z,99961.72
2023-03-15T16:02:00.064Z,99966.97
2023-03-15T16:04:28.857Z,99960.88
2023-03-15T16:06:59.749Z,99986.81
2023-03-15T16:09:30.142Z,99975.59
2023-03-15T16:11:58.455Z,99966.47
2023-03-15T16:14:26.048Z,99987.31
2023-03-15T16:16:53.295Z,99986.66
2023-03-15T16:19:20.934Z,99989.06
2023-03-15T16:21:51.702Z,99990.97
2023-03-15T16:24:23.836Z,100000.91
2023-03-15T16:26:51.538Z,100004.28
2023-03-15T16:29:23.085Z,100006.66
2023-03-15T16:31:51.287Z,100011.84
2023-03-15T16:34:19.728Z,100021.84
2023-03-15T16:36:49.717Z,100017.94
2023-03-15T16:39:17.919Z,100034.41
2023-03-15T16:41:45.189Z,100030.16
2023-03-15T16:44:17.467Z,100033.03
2023-03-15T16:46:44.710Z,100040.03
2023-03-15T16:49:15.340Z,100030.72
2023-03-15T16:51:47.556Z,100035.31
2023-03-15T16:54:24.536Z,100043.09
2023-03-15T16:56:59.528Z,100036.25
2023-03-15T16:59:28.421Z,100049.50
2023-03-15T17:01:55.676Z,100050.03
2023-03-15T17:04:23.287Z,100051.53
2023-03-15T17:09:24.613Z,100057.38
2023-03-15T17:11:52.548Z,100059.50
2023-03-15T17:14:30.080Z,100065.34
2023-03-15T17:16:57.605Z,100071.63
2023-03-15T17:19:25.583Z,100072.59
2023-03-15T17:21:53.996Z,100070.75
2023-03-15T17:24:22.136Z,100078.09
2023-03-15T17:26:49.469Z,100064.16
2023-03-15T17:29:17.170Z,100084.06
2023-03-15T17:31:47.197Z,100088.44
2023-03-15T17:34:14.861Z,100082.91
2023-03-15T17:36:42.243Z,100086.41
2023-03-15T17:39:16.138Z,100078.97
2023-03-15T17:41:46.976Z,100104.13
2023-03-15T17:44:14.730Z,100094.91
2023-03-15T17:46:43.099Z,100107.66
2023-03-15T17:49:13.361Z,100103.41
2023-03-15T17:51:40.715Z,100102.56
2023-03-15T17:54:17.876Z,100108.63
2023-03-15T17:56:45.170Z,100111.03
2023-03-15T17:59:13.613Z,100107.19
2023-03-15T18:01:46.555Z,100105.69
2023-03-15T18:04:15.208Z,100125.44
2023-03-15T18:06:42.963Z,100108.25
2023-03-15T18:09:15.420Z,100119.47
2023-03-15T18:11:43.989Z,100126.25
2023-03-15T18:14:13.796Z,100120.97
2023-03-15T18:16:42.039Z,100120.72
2023-03-15T18:19:09.972Z,100119.34
2023-03-15T18:21:37.380Z,100121.03
2023-03-15T18:24:05.164Z,100131.22
2023-03-15T18:26:32.416Z,100125.06
2023-03-15T18:29:00.110Z,100119.13
2023-03-15T18:31:27.415Z,100119.25
2023-03-15T18:33:55.067Z,100135.19
2023-03-15T18:36:22.534Z,100130.41
2023-03-15T18:38:50.426Z,100147.47
2023-03-15T18:41:20.925Z,100136.59
2023-03-15T18:43:52.157Z,100142.53
2023-03-15T18:46:22.632Z,100146.00
2023-03-15T18:48:53.523Z,100156.16
2023-03-15T18:51:23.289Z,100145.25
2023-03-15T18:53:51.003Z,100143.91
2023-03-15T18:56:26.603Z,100147.34
2023-03-15T18:58:54.875Z,100143.25
2023-03-15T19:01:24.457Z,100151.75
2023-03-15T19:03:53.264Z,100151.97
2023-03-15T19:06:21.611Z,100153.09
2023-03-15T19:08:53.430Z,100162.00
2023-03-15T19:11:24.084Z,100157.84
2023-03-15T19:13:51.728Z,100163.13
2023-03-15T19:16:20.741Z,100157.22
2023-03-15T19:18:49.727Z,100173.03
2023-03-15T19:21:18.899Z,100174.88
2023-03-15T19:23:47.127Z,100174.84
2023-03-15T19:26:14.499Z,100186.16
2023-03-15T19:28:42.389Z,100187.81
2023-03-15T19:31:10.266Z,100190.94
2023-03-15T19:33:38.649Z,100185.81
2023-03-15T19:36:06.309Z,100182.25
2023-03-15T19:38:34.180Z,100183.97
2023-03-15T19:41:06.325Z,100184.41
2023-03-15T19:43:34.565Z,100196.34
2023-03-15T19:46:01.908Z,100194.25
2023-03-15T19:48:29.486Z,100201.84
2023-03-15T19:50:56.705Z,100206.56
2023-03-15T19:53:25.754Z,100195.63
2023-03-15T19:55:52.994Z,100208.75
2023-03-15T19:58:21.074Z,100199.75
2023-03-15T20:00:54.261Z,100197.47
2023-03-15T20:03:21.751Z,100212.16
2023-03-15T20:05:49.010Z,100208.47
2023-03-15T20:08:16.666Z,100216.22
2023-03-15T20:10:44.138Z,100208.03
2023-03-15T20:13:11.785Z,100217.63
2023-03-15T20:15:39.104Z,100220.19
2023-03-15T20:18:08.264Z,100219.31
2023-03-15T20:20:35.486Z,100215.06
2023-03-15T20:23:03.739Z,100209.28
2023-03-15T20:25:31.610Z,100223.13
2023-03-15T20:27:59.138Z,100214.53
2023-03-15T20:30:26.478Z,100224.66
2023-03-15T20:32:54.759Z,100219.28
2023-03-15T20:35:22.289Z,100225.16
2023-03-15T20:37:53.089Z,100237.94
2023-03-15T20:40:20.939Z,100216.13
2023-03-15T20:42:48.611Z,100233.13
2023-03-15T20:45:15.829Z,100238.03
2023-03-15T20:47:43.356Z,100233.03
2023-03-15T20:50:12.023Z,100233.50
2023-03-15T20:52:40.971Z,100237.09
2023-03-15T20:55:09.554Z,100244.00
2023-03-15T20:57:37.216Z,100249.06
2023-03-15T21:00:12.437Z,100248.88
2023-03-15T21:02:40.469Z,100242.03
2023-03-15T21:05:09.865Z,100239.00
2023-03-15T21:07:37.482Z,100242.91
2023-03-15T21:10:05.560Z,100247.06
2023-03-15T21:12:33.080Z,100246.88
2023-03-15T21:15:01.800Z,100253.78
2023-03-15T21:17:29.485Z,100250.19
2023-03-15T21:19:57.189Z,100248.66
2023-03-15T21:22:24.807Z,100249.22
2023-03-15T21:24:55.915Z,100240.69
2023-03-15T21:27:26.565Z,100246.97
2023-03-15T21:29:54.177Z,100248.56
2023-03-15T21:32:21.844Z,100253.59
2023-03-15T21:34:49.078Z,100240.81
2023-03-15T21:37:16.692Z,100248.75
2023-03-15T21:39:43.946Z,100248.38
2023-03-15T21:42:11.865Z,100242.50
2023-03-15T21:44:39.193Z,100267.53
2023-03-15T21:47:06.792Z,100249.78
2023-03-15T21:49:34.047Z,100247.69
2023-03-15T21:52:02.508Z,100260.41
2023-03-15T21:54:29.835Z,100254.34
2023-03-15T21:56:57.422Z,100250.13
2023-03-15T21:59:28.070Z,100265.25
2023-03-15T22:01:57.254Z,100257.00
2023-03-15T22:04:25.035Z,100260.09
2023-03-15T22:06:53.053Z,100266.84
2023-03-15T22:09:21.063Z,100256.75
2023-03-15T22:11:49.058Z,100266.31
2023-03-15T22:14:16.338Z,100264.91
2023-03-15T22:16:43.944Z,100266.94
2023-03-15T22:19:11.219Z,100263.69
2023-03-15T22:21:38.774Z,100262.47
2023-03-15T22:24:06.362Z,100254.31
2023-03-15T22:26:34.312Z,100259.41
2023-03-15T22:29:01.519Z,100274.72
2023-03-15T22:31:31.898Z,100269.53
2023-03-15T22:33:59.318Z,100270.91
2023-03-15T22:36:26.834Z,100262.16
2023-03-15T22:38:54.097Z,100276.16
2023-03-15T22:41:21.673Z,100276.06
2023-03-15T22:43:49.006Z,100273.06
2023-03-15T22:46:16.628Z,100276.72
2023-03-15T22:48:43.904Z,100280.91
2023-03-15T22:51:15.149Z,100283.91
2023-03-15T22:53:42.703Z,100291.50
2023-03-15T22:56:10.536Z,100285.31
2023-03-15T22:58:38.105Z,100286.81
2023-03-15T23:01:05.868Z,100297.19
2023-03-15T23:03:33.173Z,100289.97
2023-03-15T23:06:01.174Z,100291.22
2023-03-15T23:08:28.648Z,100305.91
2023-03-15T23:10:59.700Z,100287.75
2023-03-15T23:13:27.005Z,100306.22
2023-03-15T23:15:54.670Z,100300.91
2023-03-15T23:18:22.439Z,100301.25
2023-03-15T23:20:50.005Z,100298.53
2023-03-15T23:23:17.665Z,100304.78
2023-03-15T23:25:46.033Z,100304.38
2023-03-15T23:28:14.013Z,100305.91
2023-03-15T23:30:45.712Z,100310.84
2023-03-15T23:33:13.563Z,100303.84
2023-03-15T23:35:42.158Z,100295.22
2023-03-15T23:38:09.526Z,100301.13
2023-03-15T23:40:37.544Z,100313.94
2023-03-15T23:43:05.971Z,100324.19
2023-03-15T23:45:34.158Z,100314.09
2023-03-15T23:48:02.681Z,100323.78
2023-03-15T23:50:30.585Z,100327.28
2023-03-15T23:52:58.241Z,100322.81
2023-03-15T23:55:25.897Z,100324.78
2023-03-15T23:57:53.314Z,100322.50
